sensor_id;sensor_type;location;lat;lon;timestamp;pressure;altitude;pressure_sealevel;temperature
13304;BMP280;6720;51.958;4.540;2023-08-01T00:01:29;99770.69;;;20.24
13304;BMP280;6720;51.958;4.540;2023-08-01T00:03:55;99759.78;;;20.40
13304;BMP280;6720;51.958;4.540;2023-08-01T00:06:20;99760.00;;;20.37
13304;BMP280;6720;51.958;4.540;2023-08-01T00:08:47;99752.28;;;20.45
13304;BMP280;6720;51.958;4.540;2023-08-01T00:11:13;99748.56;;;20.47
13304;BMP280;6720;51.958;4.540;2023-08-01T00:13:39;99752.56;;;20.29
13304;BMP280;6720;51.958;4.540;2023-08-01T00:16:05;99746.34;;;20.41
13304;BMP280;6720;51.958;4.540;2023-08-01T00:18:30;99747.78;;;20.34
13304;BMP280;6720;51.958;4.540;2023-08-01T00:20:56;99729.19;;;20.34
13304;BMP280;6720;51.958;4.540;2023-08-01T00:23:21;99725.78;;;20.32
13304;BMP280;6720;51.958;4.540;2023-08-01T00:25:47;99721.97;;;20.47
13304;BMP280;6720;51.958;4.540;2023-08-01T00:28:21;99716.16;;;20.42
13304;BMP280;6720;51.958;4.540;2023-08-01T00:30:46;99720.44;;;20.32
13304;BMP280;6720;51.958;4.540;2023-08-01T00:33:12;99708.56;;;20.25
13304;BMP280;6720;51.958;4.540;2023-08-01T00:35:38;99712.47;;;20.32
13304;BMP280;6720;51.958;4.540;2023-08-01T00:38:03;99704.72;;;20.29
13304;BMP280;6720;51.958;4.540;2023-08-01T00:40:33;99706.44;;;20.30
13304;BMP280;6720;51.958;4.540;2023-08-01T00:42:59;99705.38;;;20.33
13304;BMP280;6720;51.958;4.540;2023-08-01T00:45:26;99706.88;;;20.24
13304;BMP280;6720;51.958;4.540;2023-08-01T00:47:52;99701.56;;;20.24
13304;BMP280;6720;51.958;4.540;2023-08-01T00:50:18;99699.63;;;20.26
13304;BMP280;6720;51.958;4.540;2023-08-01T00:52:48;99705.81;;;20.27
13304;BMP280;6720;51.958;4.540;2023-08-01T00:55:14;99692.63;;;20.25
13304;BMP280;6720;51.958;4.540;2023-08-01T00:57:40;99702.44;;;20.25
13304;BMP280;6720;51.958;4.540;2023-08-01T01:00:06;99703.56;;;20.10
13304;BMP280;6720;51.958;4.540;2023-08-01T01:02:32;99697.28;;;20.34
13304;BMP280;6720;51.958;4.540;2023-08-01T01:04:57;99698.97;;;20.35
13304;BMP280;6720;51.958;4.540;2023-08-01T01:07:23;99697.94;;;20.49
13304;BMP280;6720;51.958;4.540;2023-08-01T01:09:50;99690.03;;;20.36
13304;BMP280;6720;51.958;4.540;2023-08-01T01:12:15;99688.00;;;20.16
13304;BMP280;6720;51.958;4.540;2023-08-01T01:14:41;99695.06;;;20.28
13304;BMP280;6720;51.958;4.540;2023-08-01T01:17:06;99700.22;;;20.19
13304;BMP280;6720;51.958;4.540;2023-08-01T01:19:31;99695.94;;;20.29
13304;BMP280;6720;51.958;4.540;2023-08-01T01:21:57;99698.66;;;20.16
13304;BMP280;6720;51.958;4.540;2023-08-01T01:24:24;99697.50;;;20.31
13304;BMP280;6720;51.958;4.540;2023-08-01T01:26:50;99690.84;;;20.26
13304;BMP280;6720;51.958;4.540;2023-08-01T01:29:16;99686.22;;;20.04
13304;BMP280;6720;51.958;4.540;2023-08-01T01:31:43;99683.22;;;20.09
13304;BMP280;6720;51.958;4.540;2023-08-01T01:34:09;99687.69;;;20.21
13304;BMP280;6720;51.958;4.540;2023-08-01T01:36:35;99686.50;;;20.25
13304;BMP280;6720;51.958;4.540;2023-08-01T01:39:00;99686.72;;;20.09
13304;BMP280;6720;51.958;4.540;2023-08-01T01:41:26;99688.34;;;20.35
13304;BMP280;6720;51.958;4.540;2023-08-01T01:43:51;99693.66;;;20.35
13304;BMP280;6720;51.958;4.540;2023-08-01T01:46:17;99682.22;;;20.22
13304;BMP280;6720;51.958;4.540;2023-08-01T01:48:42;99687.03;;;20.17
13304;BMP280;6720;51.958;4.540;2023-08-01T01:51:08;99687.69;;;20.32
13304;BMP280;6720;51.958;4.540;2023-08-01T01:53:33;99687.69;;;20.32
13304;BMP280;6720;51.958;4.540;2023-08-01T01:55:59;99690.94;;;20.24
13304;BMP280;6720;51.958;4.540;2023-08-01T01:58:25;99683.88;;;20.36
13304;BMP280;6720;51.958;4.540;2023-08-01T02:00:50;99686.75;;;20.33
13304;BMP280;6720;51.958;4.540;2023-08-01T02:03:18;99681.06;;;20.37
13304;BMP280;6720;51.958;4.540;2023-08-01T02:05:44;99683.50;;;20.40
13304;BMP280;6720;51.958;4.540;2023-08-01T02:08:10;99686.53;;;20.36
13304;BMP280;6720;51.958;4.540;2023-08-01T02:10:35;99679.22;;;20.27
13304;BMP280;6720;51.958;4.540;2023-08-01T02:13:01;99673.66;;;20.19
13304;BMP280;6720;51.958;4.540;2023-08-01T02:15:26;99676.38;;;20.41
13304;BMP280;6720;51.958;4.540;2023-08-01T02:17:51;99674.00;;;20.49
13304;BMP280;6720;51.958;4.540;2023-08-01T02:20:17;99673.63;;;20.42
13304;BMP280;6720;51.958;4.540;2023-08-01T02:22:42;99674.84;;;20.49
13304;BMP280;6720;51.958;4.540;2023-08-01T02:25:08;99671.91;;;20.41
13304;BMP280;6720;51.958;4.540;2023-08-01T02:27:33;99674.59;;;20.52
13304;BMP280;6720;51.958;4.540;2023-08-01T02:29:59;99672.66;;;20.43
13304;BMP280;6720;51.958;4.540;2023-08-01T02:32:24;99666.84;;;20.38
13304;BMP280;6720;51.958;4.540;2023-08-01T02:34:50;99664.38;;;20.24
13304;BMP280;6720;51.958;4.540;2023-08-01T02:37:15;99669.31;;;20.18
13304;BMP280;6720;51.958;4.540;2023-08-01T02:39:40;99671.28;;;20.38
13304;BMP280;6720;51.958;4.540;2023-08-01T02:42:06;99669.38;;;20.40
13304;BMP280;6720;51.958;4.540;2023-08-01T02:44:31;99676.16;;;20.44
13304;BMP280;6720;51.958;4.540;2023-08-01T02:46:57;99677.75;;;20.46
13304;BMP280;6720;51.958;4.540;2023-08-01T02:49:22;99673.63;;;20.42
13304;BMP280;6720;51.958;4.540;2023-08-01T02:51:48;99670.22;;;20.40
13304;BMP280;6720;51.958;4.540;2023-08-01T02:54:13;99677.66;;;20.24
13304;BMP280;6720;51.958;4.540;2023-08-01T02:56:38;99679.06;;;20.17
13304;BMP280;6720;51.958;4.540;2023-08-01T02:59:07;99674.84;;;20.15
13304;BMP280;6720;51.958;4.540;2023-08-01T03:01:34;99673.91;;;20.27
13304;BMP280;6720;51.958;4.540;2023-08-01T03:04:02;99680.25;;;20.37
13304;BMP280;6720;51.958;4.540;2023-08-01T03:06:27;99673.75;;;20.17
13304;BMP280;6720;51.958;4.540;2023-08-01T03:08:53;99668.56;;;20.16
13304;BMP280;6720;51.958;4.540;2023-08-01T03:11:18;99669.94;;;20.09
13304;BMP280;6720;51.958;4.540;2023-08-01T03:13:44;99669.38;;;19.93
13304;BMP280;6720;51.958;4.540;2023-08-01T03:16:09;99679.16;;;19.92
13304;BMP280;6720;51.958;4.540;2023-08-01T03:18:35;99682.81;;;19.79
13304;BMP280;6720;51.958;4.540;2023-08-01T03:21:00;99680.84;;;19.93
13304;BMP280;6720;51.958;4.540;2023-08-01T03:23:29;99689.38;;;19.86
13304;BMP280;6720;51.958;4.540;2023-08-01T03:25:54;99682.56;;;19.94
13304;BMP280;6720;51.958;4.540;2023-08-01T03:28:20;99690.00;;;19.89
13304;BMP280;6720;51.958;4.540;2023-08-01T03:30:45;99690.59;;;20.05
13304;BMP280;6720;51.958;4.540;2023-08-01T03:33:11;99691.44;;;20.06
13304;BMP280;6720;51.958;4.540;2023-08-01T03:35:36;99692.22;;;19.95
13304;BMP280;6720;51.958;4.540;2023-08-01T03:38:02;99688.03;;;20.04
13304;BMP280;6720;51.958;4.540;2023-08-01T03:40:27;99697.41;;;19.97
13304;BMP280;6720;51.958;4.540;2023-08-01T03:42:53;99709.28;;;20.04
13304;BMP280;6720;51.958;4.540;2023-08-01T03:45:18;99701.91;;;19.96
13304;BMP280;6720;51.958;4.540;2023-08-01T03:47:44;99706.19;;;19.86
13304;BMP280;6720;51.958;4.540;2023-08-01T03:50:09;99702.66;;;19.86
13304;BMP280;6720;51.958;4.540;2023-08-01T03:52:35;99697.25;;;19.87
13304;BMP280;6720;51.958;4.540;2023-08-01T03:55:01;99696.16;;;19.90
13304;BMP280;6720;51.958;4.540;2023-08-01T03:57:26;99698.47;;;19.94
13304;BMP280;6720;51.958;4.540;2023-08-01T03:59:52;99704.31;;;19.99
13304;BMP280;6720;51.958;4.540;2023-08-01T04:02:17;99700.53;;;19.91
13304;BMP280;6720;51.958;4.540;2023-08-01T04:04:43;99701.94;;;19.84
13304;BMP280;6720;51.958;4.540;2023-08-01T04:07:09;99701.91;;;19.96
13304;BMP280;6720;51.958;4.540;2023-08-01T04:09:34;99701.91;;;19.96
13304;BMP280;6720;51.958;4.540;2023-08-01T04:12:00;99692.25;;;20.06
13304;BMP280;6720;51.958;4.540;2023-08-01T04:14:25;99702.69;;;20.09
13304;BMP280;6720;51.958;4.540;2023-08-01T04:16:50;99700.13;;;20.08
13304;BMP280;6720;51.958;4.540;2023-08-01T04:19:16;99701.16;;;19.94
13304;BMP280;6720;51.958;4.540;2023-08-01T04:21:41;99707.56;;;19.79
13304;BMP280;6720;51.958;4.540;2023-08-01T04:24:07;99697.06;;;19.78
13304;BMP280;6720;51.958;4.540;2023-08-01T04:26:32;99690.53;;;19.58
13304;BMP280;6720;51.958;4.540;2023-08-01T04:28:57;99688.88;;;19.81
13304;BMP280;6720;51.958;4.540;2023-08-01T04:31:23;99691.91;;;19.87
13304;BMP280;6720;51.958;4.540;2023-08-01T04:33:48;99699.00;;;19.76
13304;BMP280;6720;51.958;4.540;2023-08-01T04:36:14;99685.81;;;19.74
13304;BMP280;6720;51.958;4.540;2023-08-01T04:38:39;99687.78;;;19.83
13304;BMP280;6720;51.958;4.540;2023-08-01T04:41:05;99688.88;;;19.81
13304;BMP280;6720;51.958;4.540;2023-08-01T04:43:30;99692.50;;;19.80
13304;BMP280;6720;51.958;4.540;2023-08-01T04:45:55;99691.09;;;19.87
13304;BMP280;6720;51.958;4.540;2023-08-01T04:48:21;99697.44;;;19.84
13304;BMP280;6720;51.958;4.540;2023-08-01T04:50:46;99698.69;;;19.91
13304;BMP280;6720;51.958;4.540;2023-08-01T04:53:12;99702.59;;;19.75
13304;BMP280;6720;51.958;4.540;2023-08-01T04:55:37;99702.16;;;19.81
13304;BMP280;6720;51.958;4.540;2023-08-01T04:58:03;99699.16;;;19.85
13304;BMP280;6720;51.958;4.540;2023-08-01T05:00:31;99700.00;;;19.86
13304;BMP280;6720;51.958;4.540;2023-08-01T05:02:56;99707.84;;;19.87
13304;BMP280;6720;51.958;4.540;2023-08-01T05:05:22;99707.03;;;19.87
13304;BMP280;6720;51.958;4.540;2023-08-01T05:07:47;99704.47;;;19.85
13304;BMP280;6720;51.958;4.540;2023-08-01T05:10:12;99706.69;;;19.91
13304;BMP280;6720;51.958;4.540;2023-08-01T05:12:38;99706.56;;;19.93
13304;BMP280;6720;51.958;4.540;2023-08-01T05:15:04;99712.78;;;19.81
13304;BMP280;6720;51.958;4.540;2023-08-01T05:17:29;99707.56;;;19.79
13304;BMP280;6720;51.958;4.540;2023-08-01T05:19:55;99706.19;;;19.86
13304;BMP280;6720;51.958;4.540;2023-08-01T05:22:20;99700.97;;;19.85
13304;BMP280;6720;51.958;4.540;2023-08-01T05:24:46;99697.34;;;19.86
13304;BMP280;6720;51.958;4.540;2023-08-01T05:27:11;99708.22;;;20.06
13304;BMP280;6720;51.958;4.540;2023-08-01T05:29:37;99707.03;;;19.87
13304;BMP280;6720;51.958;4.540;2023-08-01T05:32:02;99709.16;;;19.82
13304;BMP280;6720;51.958;4.540;2023-08-01T05:34:28;99718.63;;;19.73
13304;BMP280;6720;51.958;4.540;2023-08-01T05:36:53;99707.28;;;19.71
13304;BMP280;6720;51.958;4.540;2023-08-01T05:39:19;99708.75;;;19.75
13304;BMP280;6720;51.958;4.540;2023-08-01T05:41:44;99714.22;;;19.97
13304;BMP280;6720;51.958;4.540;2023-08-01T05:44:09;99721.03;;;19.89
13304;BMP280;6720;51.958;4.540;2023-08-01T05:46:35;99722.72;;;19.90
13304;BMP280;6720;51.958;4.540;2023-08-01T05:49:00;99723.59;;;19.90
13304;BMP280;6720;51.958;4.540;2023-08-01T05:51:26;99725.84;;;20.07
13304;BMP280;6720;51.958;4.540;2023-08-01T05:53:51;99722.88;;;20.12
13304;BMP280;6720;51.958;4.540;2023-08-01T05:56:17;99722.06;;;20.11
13304;BMP280;6720;51.958;4.540;2023-08-01T05:58:42;99727.19;;;20.25
13304;BMP280;6720;51.958;4.540;2023-08-01T06:01:10;99724.56;;;20.13
13304;BMP280;6720;51.958;4.540;2023-08-01T06:03:37;99725.81;;;20.20
13304;BMP280;6720;51.958;4.540;2023-08-01T06:06:03;99739.88;;;20.22
13304;BMP280;6720;51.958;4.540;2023-08-01T06:08:28;99731.31;;;20.29
13304;BMP280;6720;51.958;4.540;2023-08-01T06:10:54;99736.19;;;20.35
13304;BMP280;6720;51.958;4.540;2023-08-01T06:13:19;99738.34;;;20.30
13304;BMP280;6720;51.958;4.540;2023-08-01T06:15:45;99735.97;;;20.38
13304;BMP280;6720;51.958;4.540;2023-08-01T06:18:10;99734.78;;;20.42
13304;BMP280;6720;51.958;4.540;2023-08-01T06:20:37;99745.78;;;20.25
13304;BMP280;6720;51.958;4.540;2023-08-01T06:23:02;99738.06;;;20.57
13304;BMP280;6720;51.958;4.540;2023-08-01T06:25:28;99738.72;;;20.71
13304;BMP280;6720;51.958;4.540;2023-08-01T06:27:53;99746.44;;;20.63
13304;BMP280;6720;51.958;4.540;2023-08-01T06:30:18;99746.50;;;20.85
13304;BMP280;6720;51.958;4.540;2023-08-01T06:32:44;99751.22;;;20.47
13304;BMP280;6720;51.958;4.540;2023-08-01T06:35:09;99742.84;;;20.64
13304;BMP280;6720;51.958;4.540;2023-08-01T06:37:35;99747.19;;;20.65
13304;BMP280;6720;51.958;4.540;2023-08-01T06:40:01;99738.13;;;20.44
13304;BMP280;6720;51.958;4.540;2023-08-01T06:42:27;99745.44;;;20.53
13304;BMP280;6720;51.958;4.540;2023-08-01T06:44:52;99743.50;;;20.55
13304;BMP280;6720;51.958;4.540;2023-08-01T06:47:17;99749.47;;;20.59
13304;BMP280;6720;51.958;4.540;2023-08-01T06:49:43;99760.81;;;20.37
13304;BMP280;6720;51.958;4.540;2023-08-01T06:52:09;99767.59;;;20.41
13304;BMP280;6720;51.958;4.540;2023-08-01T06:54:34;99764.22;;;20.39
13304;BMP280;6720;51.958;4.540;2023-08-01T06:56:59;99765.31;;;20.37
13304;BMP280;6720;51.958;4.540;2023-08-01T06:59:26;99764.00;;;20.42
13304;BMP280;6720;51.958;4.540;2023-08-01T07:01:51;99758.78;;;20.64
13304;BMP280;6720;51.958;4.540;2023-08-01T07:04:16;99771.28;;;20.75
13304;BMP280;6720;51.958;4.540;2023-08-01T07:06:42;99782.41;;;20.45
13304;BMP280;6720;51.958;4.540;2023-08-01T07:09:08;99771.13;;;20.65
13304;BMP280;6720;51.958;4.540;2023-08-01T07:11:33;99789.28;;;20.48
13304;BMP280;6720;51.958;4.540;2023-08-01T07:13:58;99781.75;;;20.65
13304;BMP280;6720;51.958;4.540;2023-08-01T07:16:24;99777.91;;;20.69
13304;BMP280;6720;51.958;4.540;2023-08-01T07:18:50;99780.13;;;20.75
13304;BMP280;6720;51.958;4.540;2023-08-01T07:21:16;99772.28;;;20.85
13304;BMP280;6720;51.958;4.540;2023-08-01T07:23:42;99789.31;;;20.82
13304;BMP280;6720;51.958;4.540;2023-08-01T07:26:08;99790.34;;;20.92
13304;BMP280;6720;51.958;4.540;2023-08-01T07:28:33;99795.22;;;20.98
13304;BMP280;6720;51.958;4.540;2023-08-01T07:31:07;99800.03;;;20.70
13304;BMP280;6720;51.958;4.540;2023-08-01T07:33:33;99789.69;;;20.54
13304;BMP280;6720;51.958;4.540;2023-08-01T07:35:59;99792.03;;;20.93
13304;BMP280;6720;51.958;4.540;2023-08-01T07:38:25;99789.19;;;21.07
13304;BMP280;6720;51.958;4.540;2023-08-01T07:40:52;99794.97;;;21.01
13304;BMP280;6720;51.958;4.540;2023-08-01T07:43:18;99799.75;;;21.20
13304;BMP280;6720;51.958;4.540;2023-08-01T07:45:44;99795.38;;;20.84
13304;BMP280;6720;51.958;4.540;2023-08-01T07:48:10;99800.78;;;21.06
13304;BMP280;6720;51.958;4.540;2023-08-01T07:50:35;99798.63;;;20.88
13304;BMP280;6720;51.958;4.540;2023-08-01T07:53:00;99795.81;;;21.02
13304;BMP280;6720;51.958;4.540;2023-08-01T07:55:26;99808.41;;;21.00
13304;BMP280;6720;51.958;4.540;2023-08-01T07:57:51;99806.88;;;20.85
13304;BMP280;6720;51.958;4.540;2023-08-01T08:00:17;99806.84;;;21.08
13304;BMP280;6720;51.958;4.540;2023-08-01T08:02:44;99801.19;;;20.89
13304;BMP280;6720;51.958;4.540;2023-08-01T08:05:10;99814.59;;;21.11
13304;BMP280;6720;51.958;4.540;2023-08-01T08:07:36;99809.75;;;21.16
13304;BMP280;6720;51.958;4.540;2023-08-01T08:10:03;99802.31;;;21.32
13304;BMP280;6720;51.958;4.540;2023-08-01T08:12:28;99819.50;;;21.28
13304;BMP280;6720;51.958;4.540;2023-08-01T08:14:54;99813.06;;;21.31
13304;BMP280;6720;51.958;4.540;2023-08-01T08:17:19;99812.63;;;21.59
13304;BMP280;6720;51.958;4.540;2023-08-01T08:19:45;99831.84;;;21.40
13304;BMP280;6720;51.958;4.540;2023-08-01T08:22:10;99818.16;;;21.56
13304;BMP280;6720;51.958;4.540;2023-08-01T08:24:36;99822.25;;;21.27
13304;BMP280;6720;51.958;4.540;2023-08-01T08:27:01;99827.03;;;21.11
13304;BMP280;6720;51.958;4.540;2023-08-01T08:29:27;99824.56;;;21.31
13304;BMP280;6720;51.958;4.540;2023-08-01T08:31:52;99827.84;;;21.35
13304;BMP280;6720;51.958;4.540;2023-08-01T08:34:18;99824.19;;;21.25
13304;BMP280;6720;51.958;4.540;2023-08-01T08:36:43;99842.50;;;20.82
13304;BMP280;6720;51.958;4.540;2023-08-01T08:39:09;99833.00;;;21.14
13304;BMP280;6720;51.958;4.540;2023-08-01T08:41:39;99829.22;;;21.06
13304;BMP280;6720;51.958;4.540;2023-08-01T08:44:08;99832.47;;;20.98
13304;BMP280;6720;51.958;4.540;2023-08-01T08:46:41;99828.66;;;21.35
13304;BMP280;6720;51.958;4.540;2023-08-01T08:49:08;99836.00;;;21.67
13304;BMP280;6720;51.958;4.540;2023-08-01T08:51:38;99843.13;;;21.55
13304;BMP280;6720;51.958;4.540;2023-08-01T08:54:05;99839.69;;;21.31
13304;BMP280;6720;51.958;4.540;2023-08-01T08:56:31;99840.94;;;21.38
13304;BMP280;6720;51.958;4.540;2023-08-01T08:58:57;99842.47;;;21.29
13304;BMP280;6720;51.958;4.540;2023-08-01T09:01:24;99840.50;;;21.09
13304;BMP280;6720;51.958;4.540;2023-08-01T09:03:49;99840.63;;;21.30
13304;BMP280;6720;51.958;4.540;2023-08-01T09:06:16;99832.94;;;21.38
13304;BMP280;6720;51.958;4.540;2023-08-01T09:09:04;99836.78;;;21.45
13304;BMP280;6720;51.958;4.540;2023-08-01T09:11:48;99847.09;;;21.38
13304;BMP280;6720;51.958;4.540;2023-08-01T09:14:14;99842.97;;;21.34
13304;BMP280;6720;51.958;4.540;2023-08-01T09:16:41;99859.72;;;21.70
13304;BMP280;6720;51.958;4.540;2023-08-01T09:19:07;99850.72;;;21.83
13304;BMP280;6720;51.958;4.540;2023-08-01T09:21:33;99854.69;;;21.89
13304;BMP280;6720;51.958;4.540;2023-08-01T09:24:13;99846.19;;;22.17
13304;BMP280;6720;51.958;4.540;2023-08-01T09:26:39;99861.97;;;21.87
13304;BMP280;6720;51.958;4.540;2023-08-01T09:29:05;99858.06;;;22.24
13304;BMP280;6720;51.958;4.540;2023-08-01T09:31:33;99856.59;;;22.42
13304;BMP280;6720;51.958;4.540;2023-08-01T09:33:59;99864.44;;;22.97
13304;BMP280;6720;51.958;4.540;2023-08-01T09:36:25;99862.50;;;22.45
13304;BMP280;6720;51.958;4.540;2023-08-01T09:38:51;99872.88;;;22.06
13304;BMP280;6720;51.958;4.540;2023-08-01T09:41:17;99867.75;;;22.14
13304;BMP280;6720;51.958;4.540;2023-08-01T09:43:45;99863.28;;;22.47
13304;BMP280;6720;51.958;4.540;2023-08-01T09:46:12;99868.84;;;23.18
13304;BMP280;6720;51.958;4.540;2023-08-01T09:48:38;99877.34;;;22.92
13304;BMP280;6720;51.958;4.540;2023-08-01T09:51:07;99883.16;;;23.17
13304;BMP280;6720;51.958;4.540;2023-08-01T09:53:34;99879.91;;;23.45
13304;BMP280;6720;51.958;4.540;2023-08-01T09:56:00;99873.91;;;23.32
13304;BMP280;6720;51.958;4.540;2023-08-01T09:58:33;99874.63;;;23.75
13304;BMP280;6720;51.958;4.540;2023-08-01T10:01:00;99871.09;;;23.54
13304;BMP280;6720;51.958;4.540;2023-08-01T10:03:28;99883.16;;;23.17
13304;BMP280;6720;51.958;4.540;2023-08-01T10:05:55;99889.47;;;23.89
13304;BMP280;6720;51.958;4.540;2023-08-01T10:08:21;99882.34;;;23.99
13304;BMP280;6720;51.958;4.540;2023-08-01T10:10:47;99885.78;;;23.60
13304;BMP280;6720;51.958;4.540;2023-08-01T10:13:13;99882.53;;;23.86
13304;BMP280;6720;51.958;4.540;2023-08-01T10:15:39;99878.91;;;23.87
13304;BMP280;6720;51.958;4.540;2023-08-01T10:18:05;99885.50;;;24.04
13304;BMP280;6720;51.958;4.540;2023-08-01T10:20:31;99897.56;;;23.98
13304;BMP280;6720;51.958;4.540;2023-08-01T10:22:57;99898.13;;;24.02
13304;BMP280;6720;51.958;4.540;2023-08-01T10:25:24;99890.41;;;23.88
13304;BMP280;6720;51.958;4.540;2023-08-01T10:27:59;99889.78;;;23.75
13304;BMP280;6720;51.958;4.540;2023-08-01T10:30:26;99896.53;;;24.20
13304;BMP280;6720;51.958;4.540;2023-08-01T10:32:55;99891.75;;;24.23
13304;BMP280;6720;51.958;4.540;2023-08-01T10:35:34;99896.44;;;24.71
13304;BMP280;6720;51.958;4.540;2023-08-01T10:38:07;99905.31;;;24.41
13304;BMP280;6720;51.958;4.540;2023-08-01T10:40:37;99903.94;;;24.46
13304;BMP280;6720;51.958;4.540;2023-08-01T10:43:03;99899.00;;;23.82
13304;BMP280;6720;51.958;4.540;2023-08-01T10:45:28;99905.09;;;23.73
13304;BMP280;6720;51.958;4.540;2023-08-01T10:48:06;99909.31;;;23.66
13304;BMP280;6720;51.958;4.540;2023-08-01T10:50:32;99903.34;;;23.42
13304;BMP280;6720;51.958;4.540;2023-08-01T10:53:08;99908.66;;;22.79
13304;BMP280;6720;51.958;4.540;2023-08-01T10:55:45;99916.78;;;23.20
13304;BMP280;6720;51.958;4.540;2023-08-01T10:58:11;99913.78;;;23.86
13304;BMP280;6720;51.958;4.540;2023-08-01T11:00:37;99909.13;;;23.88
13304;BMP280;6720;51.958;4.540;2023-08-01T11:03:03;99917.00;;;23.28
13304;BMP280;6720;51.958;4.540;2023-08-01T11:05:29;99926.22;;;23.35
13304;BMP280;6720;51.958;4.540;2023-08-01T11:08:00;99934.06;;;22.62
13304;BMP280;6720;51.958;4.540;2023-08-01T11:10:27;99941.94;;;22.64
13304;BMP280;6720;51.958;4.540;2023-08-01T11:12:53;99945.81;;;22.60
13304;BMP280;6720;51.958;4.540;2023-08-01T11:15:19;99941.22;;;22.62
13304;BMP280;6720;51.958;4.540;2023-08-01T11:17:50;99942.44;;;22.58
13304;BMP280;6720;51.958;4.540;2023-08-01T11:20:17;99953.59;;;22.63
13304;BMP280;6720;51.958;4.540;2023-08-01T11:22:57;99945.44;;;22.31
13304;BMP280;6720;51.958;4.540;2023-08-01T11:25:39;99945.09;;;22.47
13304;BMP280;6720;51.958;4.540;2023-08-01T11:28:16;99935.97;;;22.16
13304;BMP280;6720;51.958;4.540;2023-08-01T11:30:42;99949.31;;;22.38
13304;BMP280;6720;51.958;4.540;2023-08-01T11:33:20;99954.31;;;22.76
13304;BMP280;6720;51.958;4.540;2023-08-01T11:35:49;99951.06;;;23.04
13304;BMP280;6720;51.958;4.540;2023-08-01T11:38:15;99955.25;;;22.64
13304;BMP280;6720;51.958;4.540;2023-08-01T11:40:41;99951.25;;;22.80
13304;BMP280;6720;51.958;4.540;2023-08-01T11:43:07;99945.09;;;22.47
13304;BMP280;6720;51.958;4.540;2023-08-01T11:45:33;99953.94;;;22.69
13304;BMP280;6720;51.958;4.540;2023-08-01T11:47:59;99949.44;;;22.70
13304;BMP280;6720;51.958;4.540;2023-08-01T11:50:25;99962.09;;;22.57
13304;BMP280;6720;51.958;4.540;2023-08-01T11:52:51;99957.00;;;22.65
13304;BMP280;6720;51.958;4.540;2023-08-01T11:55:26;99957.97;;;22.53
13304;BMP280;6720;51.958;4.540;2023-08-01T11:57:56;99965.06;;;22.96
13304;BMP280;6720;51.958;4.540;2023-08-01T12:00:27;99952.97;;;22.81
13304;BMP280;6720;51.958;4.540;2023-08-01T12:03:06;99963.00;;;22.89
13304;BMP280;6720;51.958;4.540;2023-08-01T12:05:32;99978.06;;;22.46
13304;BMP280;6720;51.958;4.540;2023-08-01T12:08:11;99966.53;;;22.34
13304;BMP280;6720;51.958;4.540;2023-08-01T12:10:42;99980.69;;;22.90
13304;BMP280;6720;51.958;4.540;2023-08-01T12:13:24;99975.56;;;22.55
13304;BMP280;6720;51.958;4.540;2023-08-01T12:15:51;99960.56;;;22.86
13304;BMP280;6720;51.958;4.540;2023-08-01T12:18:24;99975.78;;;22.74
13304;BMP280;6720;51.958;4.540;2023-08-01T12:20:50;99973.53;;;23.01
13304;BMP280;6720;51.958;4.540;2023-08-01T12:23:16;99984.06;;;23.14
13304;BMP280;6720;51.958;4.540;2023-08-01T12:25:41;99996.13;;;23.51
13304;BMP280;6720;51.958;4.540;2023-08-01T12:28:07;99995.59;;;23.77
13304;BMP280;6720;51.958;4.540;2023-08-01T12:30:32;99987.16;;;23.41
13304;BMP280;6720;51.958;4.540;2023-08-01T12:32:58;99985.28;;;23.10
13304;BMP280;6720;51.958;4.540;2023-08-01T12:35:23;99984.47;;;23.41
13304;BMP280;6720;51.958;4.540;2023-08-01T12:37:49;99982.22;;;23.25
13304;BMP280;6720;51.958;4.540;2023-08-01T12:40:15;99993.75;;;24.30
13304;BMP280;6720;51.958;4.540;2023-08-01T12:42:41;99988.81;;;24.35
13304;BMP280;6720;51.958;4.540;2023-08-01T12:45:06;99996.22;;;24.01
13304;BMP280;6720;51.958;4.540;2023-08-01T12:47:32;99974.97;;;24.20
13304;BMP280;6720;51.958;4.540;2023-08-01T12:49:57;99995.22;;;23.82
13304;BMP280;6720;51.958;4.540;2023-08-01T12:52:24;99989.94;;;23.91
13304;BMP280;6720;51.958;4.540;2023-08-01T12:54:50;99989.94;;;23.71
13304;BMP280;6720;51.958;4.540;2023-08-01T12:57:15;99983.50;;;24.14
13304;BMP280;6720;51.958;4.540;2023-08-01T12:59:41;99992.00;;;24.29
13304;BMP280;6720;51.958;4.540;2023-08-01T13:02:06;100002.22;;;23.94
13304;BMP280;6720;51.958;4.540;2023-08-01T13:04:34;100008.44;;;23.63
13304;BMP280;6720;51.958;4.540;2023-08-01T13:06:59;100002.72;;;23.36
13304;BMP280;6720;51.958;4.540;2023-08-01T13:09:25;100003.44;;;23.38
13304;BMP280;6720;51.958;4.540;2023-08-01T13:11:50;100008.13;;;23.03
13304;BMP280;6720;51.958;4.540;2023-08-01T13:14:16;100011.25;;;23.61
13304;BMP280;6720;51.958;4.540;2023-08-01T13:16:41;100002.31;;;23.72
13304;BMP280;6720;51.958;4.540;2023-08-01T13:19:07;100003.31;;;23.91
13304;BMP280;6720;51.958;4.540;2023-08-01T13:21:33;99990.88;;;23.81
13304;BMP280;6720;51.958;4.540;2023-08-01T13:24:00;100004.59;;;24.08
13304;BMP280;6720;51.958;4.540;2023-08-01T13:26:32;100013.25;;;24.00
13304;BMP280;6720;51.958;4.540;2023-08-01T13:28:58;100005.97;;;24.02
13304;BMP280;6720;51.958;4.540;2023-08-01T13:31:25;100014.56;;;23.74
13304;BMP280;6720;51.958;4.540;2023-08-01T13:33:50;100014.47;;;24.17
13304;BMP280;6720;51.958;4.540;2023-08-01T13:36:19;100011.78;;;23.76
13304;BMP280;6720;51.958;4.540;2023-08-01T13:38:44;100020.47;;;23.26
13304;BMP280;6720;51.958;4.540;2023-08-01T13:41:10;100026.16;;;23.64
13304;BMP280;6720;51.958;4.540;2023-08-01T13:43:36;100021.88;;;23.72
13304;BMP280;6720;51.958;4.540;2023-08-01T13:46:12;100017.16;;;23.96
13304;BMP280;6720;51.958;4.540;2023-08-01T13:48:38;100008.56;;;23.93
13304;BMP280;6720;51.958;4.540;2023-08-01T13:51:03;100019.63;;;24.29
13304;BMP280;6720;51.958;4.540;2023-08-01T13:53:29;100021.75;;;24.05
13304;BMP280;6720;51.958;4.540;2023-08-01T13:55:54;100019.41;;;24.42
13304;BMP280;6720;51.958;4.540;2023-08-01T13:58:20;100019.84;;;24.17
13304;BMP280;6720;51.958;4.540;2023-08-01T14:00:46;100008.97;;;24.39
13304;BMP280;6720;51.958;4.540;2023-08-01T14:03:11;100016.34;;;25.26
13304;BMP280;6720;51.958;4.540;2023-08-01T14:05:37;100006.56;;;25.06
13304;BMP280;6720;51.958;4.540;2023-08-01T14:08:02;100017.44;;;24.44
13304;BMP280;6720;51.958;4.540;2023-08-01T14:10:27;100023.63;;;23.94
13304;BMP280;6720;51.958;4.540;2023-08-01T14:12:53;100021.59;;;24.07
13304;BMP280;6720;51.958;4.540;2023-08-01T14:15:19;100025.25;;;24.56
13304;BMP280;6720;51.958;4.540;2023-08-01T14:17:45;100018.44;;;24.43